Time;durP1;ratioP1;P1;durP2;ratioP2;P2;SDS_P1;SDS_P2;PMS_P1;PMS_P2;Temp;Humidity;BMP_temperature;BMP_pressure;BME280_temperature;BME280_humidity;BME280_pressure;Samples;Min_cycle;Max_cycle;Signal;HPM_P1;HPM_P2
2023/05/10 00:00:15;;;;;;;9.57;4.30;;;13.70;99.90;;;;;;5067996;28;20193;-72
2023/05/10 00:02:40;;;;;;;5.97;3.67;;;13.70;99.90;;;;;;5054816;28;20701;-71
2023/05/10 00:05:07;;;;;;;4.50;4.10;;;13.70;99.90;;;;;;5054948;28;20430;-72
2023/05/10 00:07:33;;;;;;;5.10;4.60;;;13.70;99.90;;;;;;5055063;28;20167;-70
2023/05/10 00:09:58;;;;;;;7.10;3.57;;;13.70;99.90;;;;;;5050658;28;20511;-72
2023/05/10 00:12:24;;;;;;;3.83;3.53;;;13.70;99.90;;;;;;5056039;28;20227;-72
2023/05/10 00:14:50;;;;;;;4.30;3.90;;;13.70;99.90;;;;;;5055178;28;20171;-72
2023/05/10 00:17:15;;;;;;;6.17;4.20;;;13.70;99.90;;;;;;5062293;28;20221;-70
2023/05/10 00:19:41;;;;;;;4.90;4.40;;;13.70;99.90;;;;;;5056523;28;20198;-70
2023/05/10 00:22:07;;;;;;;4.10;3.77;;;13.60;99.90;;;;;;5071781;28;20678;-71
2023/05/10 00:24:32;;;;;;;4.47;4.17;;;13.60;99.90;;;;;;5058730;28;20186;-72
2023/05/10 00:26:58;;;;;;;7.17;6.10;;;13.50;99.90;;;;;;5054669;28;20203;-72
2023/05/10 00:29:24;;;;;;;4.20;3.80;;;13.40;99.90;;;;;;5054495;28;20221;-70
2023/05/10 00:31:50;;;;;;;8.40;4.10;;;13.40;99.90;;;;;;5067393;28;20174;-70
2023/05/10 00:34:15;;;;;;;4.23;3.93;;;13.30;99.90;;;;;;5054767;28;20240;-70
2023/05/10 00:36:41;;;;;;;4.87;4.47;;;13.30;99.90;;;;;;5052628;28;20175;-70
2023/05/10 00:39:07;;;;;;;5.23;4.67;;;13.30;99.90;;;;;;5054883;28;20612;-72
2023/05/10 00:41:33;;;;;;;3.97;3.67;;;13.30;99.90;;;;;;5051580;28;20536;-72
2023/05/10 00:43:59;;;;;;;4.57;4.00;;;13.20;99.90;;;;;;5054587;28;20456;-69
2023/05/10 00:46:25;;;;;;;6.30;4.37;;;13.20;99.90;;;;;;5054129;28;20175;-69
2023/05/10 00:48:52;;;;;;;4.57;4.17;;;13.10;99.90;;;;;;5054580;28;20397;-72
2023/05/10 00:51:18;;;;;;;5.10;4.00;;;13.10;99.90;;;;;;5051006;28;20425;-72
2023/05/10 00:53:45;;;;;;;6.70;4.87;;;13.10;99.90;;;;;;5069296;28;20452;-72
2023/05/10 00:56:12;;;;;;;5.30;4.83;;;13.10;99.90;;;;;;5053968;28;20432;-70
2023/05/10 00:58:38;;;;;;;5.93;4.40;;;13.10;99.90;;;;;;5054235;28;20464;-72
2023/05/10 01:01:05;;;;;;;6.03;3.70;;;13.10;99.90;;;;;;5051076;28;20806;-72
2023/05/10 01:03:32;;;;;;;8.40;5.40;;;13.10;99.90;;;;;;5054278;28;20461;-69
2023/05/10 01:05:58;;;;;;;4.67;4.30;;;13.00;99.90;;;;;;5052662;28;20429;-71
2023/05/10 01:08:25;;;;;;;4.77;3.73;;;13.00;99.90;;;;;;5055568;28;20514;-72
2023/05/10 01:10:52;;;;;;;4.33;3.90;;;13.00;99.90;;;;;;5067768;28;20226;-70
2023/05/10 01:13:44;;;;;;;4.87;4.30;;;13.00;99.90;;;;;;5054151;28;20417;-72
2023/05/10 01:16:10;;;;;;;5.60;3.93;;;13.00;99.90;;;;;;5061260;28;20534;-72
2023/05/10 01:18:39;;;;;;;5.20;4.70;;;13.00;99.90;;;;;;5061082;28;20921;-72
2023/05/10 01:21:08;;;;;;;7.70;5.10;;;12.90;99.90;;;;;;5060482;28;20182;-72
2023/05/10 01:23:59;;;;;;;11.57;4.40;;;12.90;99.90;;;;;;5068330;28;20443;-70
2023/05/10 01:27:02;;;;;;;5.03;4.60;;;12.80;99.90;;;;;;5054619;28;20410;-69
2023/05/10 01:30:06;;;;;;;5.30;4.80;;;12.90;99.90;;;;;;5072912;28;20382;-69
2023/05/10 01:32:39;;;;;;;5.60;4.47;;;12.90;99.90;;;;;;5025575;28;20435;-72
2023/05/10 01:35:07;;;;;;;5.33;4.40;;;12.90;99.90;;;;;;5073590;28;20444;-72
2023/05/10 01:37:50;;;;;;;4.60;4.20;;;12.90;99.90;;;;;;5073587;28;20440;-70
2023/05/10 01:40:18;;;;;;;5.53;4.93;;;12.90;99.90;;;;;;5071351;28;20790;-69
2023/05/10 01:42:59;;;;;;;5.03;4.40;;;12.80;99.90;;;;;;5073383;28;20531;-71
2023/05/10 01:45:38;;;;;;;14.10;4.97;;;12.90;99.90;;;;;;5073411;28;20447;-71
2023/05/10 01:48:10;;;;;;;4.87;4.37;;;12.80;99.90;;;;;;5072644;28;20911;-70
2023/05/10 01:50:39;;;;;;;7.23;5.67;;;12.80;99.90;;;;;;5072575;28;20378;-69
2023/05/10 01:53:08;;;;;;;4.60;4.17;;;12.80;99.90;;;;;;5073195;28;20901;-72
2023/05/10 01:55:41;;;;;;;5.13;4.73;;;12.80;99.90;;;;;;5073299;28;20400;-69
2023/05/10 01:58:10;;;;;;;4.10;3.80;;;12.70;99.90;;;;;;5051870;28;20520;-71
2023/05/10 02:00:36;;;;;;;5.20;4.70;;;12.80;99.90;;;;;;5061450;28;20909;-70
2023/05/10 02:03:06;;;;;;;5.53;5.03;;;12.70;99.90;;;;;;5058042;28;20472;-71
2023/05/10 02:05:34;;;;;;;5.27;4.87;;;12.70;99.90;;;;;;5067841;28;20431;-71
2023/05/10 02:08:02;;;;;;;6.30;4.50;;;12.70;99.90;;;;;;5053106;28;20797;-72
2023/05/10 02:10:30;;;;;;;5.00;4.60;;;12.60;99.90;;;;;;5066884;28;20436;-72
2023/05/10 02:12:59;;;;;;;6.10;5.50;;;12.60;99.90;;;;;;5057207;28;20482;-72
2023/05/10 02:15:26;;;;;;;4.90;4.50;;;12.70;99.90;;;;;;5054621;28;20413;-69
2023/05/10 02:17:55;;;;;;;6.13;5.00;;;12.60;99.90;;;;;;5053024;28;20432;-70
2023/05/10 02:20:23;;;;;;;6.20;4.63;;;12.60;99.90;;;;;;5051749;28;20958;-70
2023/05/10 02:22:52;;;;;;;7.70;5.07;;;12.50;99.90;;;;;;5060721;28;20464;-72
2023/05/10 02:25:22;;;;;;;5.30;4.90;;;12.50;99.90;;;;;;5066203;28;20461;-72
2023/05/10 02:27:48;;;;;;;5.30;4.80;;;12.50;99.90;;;;;;5052313;28;20399;-72
2023/05/10 02:30:16;;;;;;;9.43;5.07;;;12.50;99.90;;;;;;5051687;28;20421;-70
2023/05/10 02:32:42;;;;;;;5.00;4.60;;;12.50;99.90;;;;;;5052156;28;20461;-70
2023/05/10 02:35:09;;;;;;;5.60;5.10;;;12.60;99.90;;;;;;5060489;28;20436;-69
2023/05/10 02:37:37;;;;;;;6.70;4.90;;;12.50;99.90;;;;;;5059772;28;20433;-73
2023/05/10 02:40:06;;;;;;;6.90;5.10;;;12.50;99.90;;;;;;5051783;28;20486;-71
2023/05/10 02:42:35;;;;;;;8.97;5.40;;;12.40;99.90;;;;;;5051626;28;20487;-72
2023/05/10 02:45:05;;;;;;;5.73;4.43;;;12.40;99.90;;;;;;5053559;28;20437;-71
2023/05/10 02:47:31;;;;;;;5.10;4.70;;;12.40;99.90;;;;;;5056258;28;20512;-72
2023/05/10 02:49:57;;;;;;;8.03;5.00;;;12.40;99.90;;;;;;5056192;28;20908;-70
2023/05/10 02:52:30;;;;;;;5.73;5.23;;;12.40;99.90;;;;;;5039944;28;20449;-69
2023/05/10 02:55:00;;;;;;;6.30;4.90;;;12.40;99.90;;;;;;5070033;28;20186;-70
2023/05/10 02:57:36;;;;;;;8.60;5.47;;;12.40;99.90;;;;;;5038087;28;20403;-70
2023/05/10 03:00:15;;;;;;;8.53;6.33;;;12.40;99.90;;;;;;5055594;28;20412;-71
2023/05/10 03:05:45;;;;;;;5.20;4.70;;;12.40;99.90;;;;;;5071630;28;20975;-69
2023/05/10 03:08:11;;;;;;;5.20;4.73;;;12.30;99.90;;;;;;5056588;28;20397;-70
2023/05/10 03:11:04;;;;;;;6.70;5.17;;;12.30;99.90;;;;;;5055340;28;20175;-70
2023/05/10 03:13:43;;;;;;;5.67;5.20;;;12.30;99.90;;;;;;5036795;28;20404;-71
2023/05/10 03:16:15;;;;;;;7.10;5.63;;;12.30;99.90;;;;;;5074756;28;20424;-72
2023/05/10 03:18:50;;;;;;;5.63;4.73;;;12.30;99.90;;;;;;5040742;28;20419;-71
2023/05/10 03:21:18;;;;;;;5.97;5.43;;;12.30;99.90;;;;;;5062748;28;20434;-70
2023/05/10 03:23:50;;;;;;;6.20;5.37;;;12.20;99.90;;;;;;5063210;28;20468;-69
2023/05/10 03:26:28;;;;;;;7.33;5.57;;;12.20;99.90;;;;;;5074256;28;20417;-72
2023/05/10 03:28:55;;;;;;;6.07;5.50;;;12.20;99.90;;;;;;5056106;28;20408;-70
2023/05/10 03:31:21;;;;;;;6.67;5.57;;;12.10;99.90;;;;;;5063404;28;20367;-72
2023/05/10 03:33:48;;;;;;;6.10;5.53;;;12.10;99.90;;;;;;5075817;28;20394;-72
2023/05/10 03:36:14;;;;;;;6.43;5.47;;;12.10;99.90;;;;;;5076050;28;20381;-70
2023/05/10 03:38:40;;;;;;;7.50;5.10;;;12.10;99.90;;;;;;5071002;28;20867;-70
2023/05/10 03:41:06;;;;;;;4.80;4.40;;;12.10;99.90;;;;;;5055053;28;20861;-69
2023/05/10 03:43:32;;;;;;;4.83;4.40;;;12.10;99.90;;;;;;5064077;28;20447;-72
2023/05/10 03:45:58;;;;;;;6.27;5.70;;;12.00;99.90;;;;;;5076888;28;20189;-72
2023/05/10 03:48:24;;;;;;;5.27;4.83;;;12.00;99.90;;;;;;5075775;28;20376;-72
2023/05/10 03:51:06;;;;;;;7.73;5.57;;;12.00;99.90;;;;;;5074878;28;20371;-72
2023/05/10 03:53:32;;;;;;;5.87;5.37;;;12.00;99.90;;;;;;5075467;28;20190;-72
2023/05/10 03:56:18;;;;;;;8.50;5.60;;;12.10;99.90;;;;;;5074488;28;20417;-72
2023/05/10 03:58:59;;;;;;;;;;;;;;;;;;;;;
2023/05/10 04:01:25;;;;;;;6.17;5.40;;;12.00;99.90;;;;;;5053846;28;20934;-73
2023/05/10 04:04:01;;;;;;;8.63;5.40;;;11.90;99.90;;;;;;5053825;28;20530;-72
2023/05/10 04:06:27;;;;;;;10.53;5.87;;;12.00;99.90;;;;;;5074244;28;20530;-72
2023/05/10 04:08:53;;;;;;;5.63;5.13;;;12.00;99.90;;;;;;5071576;28;20395;-73
2023/05/10 04:11:21;;;;;;;6.63;4.90;;;12.00;99.90;;;;;;5073275;28;20206;-72
2023/05/10 04:13:48;;;;;;;6.23;5.73;;;11.90;99.90;;;;;;5074636;28;20430;-69
2023/05/10 04:16:23;;;;;;;6.60;6.10;;;12.00;99.90;;;;;;5074499;28;20375;-69
2023/05/10 04:18:49;;;;;;;5.80;5.23;;;12.00;99.90;;;;;;5075123;28;20406;-71
2023/05/10 04:21:30;;;;;;;5.80;5.40;;;12.00;99.90;;;;;;5074423;28;20720;-70
2023/05/10 04:23:56;;;;;;;6.30;5.70;;;12.00;99.90;;;;;;5074056;28;20487;-72
2023/05/10 04:26:22;;;;;;;6.17;5.67;;;12.00;99.90;;;;;;5075002;28;20473;-71
2023/05/10 04:28:47;;;;;;;8.03;5.70;;;12.00;99.90;;;;;;5074996;28;20162;-70
2023/05/10 04:31:13;;;;;;;6.53;5.63;;;12.00;99.90;;;;;;5074220;28;20637;-70
2023/05/10 04:33:39;;;;;;;6.00;5.50;;;12.00;99.90;;;;;;5074173;28;20690;-70
2023/05/10 04:36:05;;;;;;;7.13;5.63;;;12.00;99.90;;;;;;5074272;28;20171;-71
2023/05/10 04:38:34;;;;;;;10.03;6.97;;;12.10;99.90;;;;;;5074931;28;20220;-72
2023/05/10 04:41:10;;;;;;;9.23;6.17;;;12.10;99.90;;;;;;5056262;28;20460;-70
2023/05/10 04:43:37;;;;;;;5.80;5.30;;;12.10;99.90;;;;;;5074544;28;20451;-72
2023/05/10 04:46:03;;;;;;;8.80;5.57;;;12.10;99.90;;;;;;5074794;28;20368;-70
2023/05/10 04:48:29;;;;;;;7.07;6.37;;;12.10;99.90;;;;;;5074699;28;20393;-72
2023/05/10 04:50:58;;;;;;;5.80;5.27;;;12.10;99.90;;;;;;5054425;28;20399;-70
2023/05/10 04:53:23;;;;;;;5.70;5.20;;;12.20;99.90;;;;;;5074140;28;20515;-70
2023/05/10 04:55:49;;;;;;;6.10;5.10;;;12.20;99.90;;;;;;5074563;28;20500;-70
2023/05/10 04:58:15;;;;;;;6.03;5.63;;;12.30;99.90;;;;;;5074375;28;20174;-70
2023/05/10 05:00:42;;;;;;;7.47;5.90;;;12.30;99.90;;;;;;5073561;28;20397;-71
2023/05/10 05:03:07;;;;;;;6.33;5.20;;;12.30;99.90;;;;;;5074155;28;20663;-70
2023/05/10 05:05:33;;;;;;;11.20;6.10;;;12.40;99.90;;;;;;5073332;28;20458;-70
2023/05/10 05:07:59;;;;;;;5.83;5.33;;;12.40;99.90;;;;;;5073951;28;20170;-72
2023/05/10 05:10:25;;;;;;;5.63;5.23;;;12.40;99.90;;;;;;5073181;28;20201;-71
2023/05/10 05:12:50;;;;;;;6.07;5.47;;;12.30;99.90;;;;;;5073233;28;20391;-70
2023/05/10 05:15:16;;;;;;;6.00;5.53;;;12.40;99.90;;;;;;5056605;28;20182;-70
2023/05/10 05:20:40;;;;;;;8.30;5.73;;;12.40;99.90;;;;;;5072238;28;20414;-70
2023/05/10 05:23:06;;;;;;;6.30;5.77;;;12.40;99.90;;;;;;5073824;28;20787;-72
2023/05/10 05:25:32;;;;;;;6.73;6.03;;;12.40;99.90;;;;;;5056268;28;20452;-70
2023/05/10 05:27:58;;;;;;;4.90;4.50;;;12.40;99.90;;;;;;5073921;28;20531;-71
2023/05/10 05:30:23;;;;;;;7.50;5.37;;;12.50;99.90;;;;;;5072087;28;20166;-72
2023/05/10 05:32:49;;;;;;;7.83;5.23;;;12.40;99.90;;;;;;5055685;28;20247;-71
2023/05/10 05:35:15;;;;;;;6.63;4.73;;;12.50;99.90;;;;;;5073278;28;20170;-70
2023/05/10 05:37:40;;;;;;;5.90;5.40;;;12.50;99.90;;;;;;5073629;28;20246;-71
2023/05/10 05:40:07;;;;;;;6.93;5.83;;;12.50;99.90;;;;;;5072733;28;20185;-71
2023/05/10 05:42:33;;;;;;;6.87;6.20;;;12.60;99.90;;;;;;5073535;28;20247;-70
2023/05/10 05:44:58;;;;;;;7.03;5.90;;;12.60;99.90;;;;;;5073351;28;20376;-70
2023/05/10 05:47:24;;;;;;;6.90;6.27;;;12.70;99.90;;;;;;5072552;28;20159;-70
2023/05/10 05:49:50;;;;;;;6.03;5.53;;;12.70;99.90;;;;;;5072693;28;20585;-71
2023/05/10 05:52:16;;;;;;;9.37;5.80;;;12.80;99.90;;;;;;5054730;28;20435;-70
2023/05/10 05:54:42;;;;;;;5.90;5.37;;;12.90;99.90;;;;;;5073359;28;20671;-71
2023/05/10 05:57:08;;;;;;;7.10;6.30;;;12.90;99.90;;;;;;5073352;28;20484;-70
2023/05/10 05:59:34;;;;;;;6.00;5.50;;;12.90;99.90;;;;;;5072424;28;20176;-72
2023/05/10 06:02:00;;;;;;;6.00;5.27;;;13.00;99.90;;;;;;5072371;28;20497;-72
2023/05/10 06:04:26;;;;;;;6.33;5.67;;;13.10;99.90;;;;;;5073284;28;20166;-70
2023/05/10 06:06:51;;;;;;;6.60;5.90;;;13.10;99.90;;;;;;5054834;28;20919;-71
2023/05/10 06:09:17;;;;;;;7.83;6.20;;;13.20;99.90;;;;;;5053316;28;20638;-72
2023/05/10 06:11:43;;;;;;;8.07;6.10;;;13.20;99.90;;;;;;5052264;28;20171;-70
2023/05/10 06:14:10;;;;;;;6.40;5.47;;;13.40;99.90;;;;;;5053023;28;20190;-72
2023/05/10 06:16:35;;;;;;;13.00;6.07;;;13.40;99.90;;;;;;5053221;28;20229;-72
2023/05/10 06:19:02;;;;;;;6.00;5.50;;;13.50;99.90;;;;;;5052244;28;20449;-72
2023/05/10 06:21:28;;;;;;;7.77;6.07;;;13.50;99.90;;;;;;5051987;28;20178;-72
2023/05/10 06:23:53;;;;;;;6.33;5.83;;;13.60;99.90;;;;;;5053058;28;20451;-72
2023/05/10 06:26:21;;;;;;;6.63;6.03;;;13.60;99.90;;;;;;5034442;28;20199;-73
2023/05/10 06:28:47;;;;;;;6.67;5.27;;;13.70;99.90;;;;;;5053019;28;20651;-71
2023/05/10 06:31:13;;;;;;;6.30;5.70;;;13.70;99.90;;;;;;5034517;28;20405;-70
2023/05/10 06:33:39;;;;;;;7.17;6.50;;;13.70;99.90;;;;;;5058114;28;20426;-70
2023/05/10 06:36:05;;;;;;;7.43;6.63;;;13.70;99.90;;;;;;5072897;28;20200;-71
2023/05/10 06:38:31;;;;;;;9.80;5.70;;;13.80;99.90;;;;;;5072992;28;20171;-72
2023/05/10 06:40:57;;;;;;;5.90;5.40;;;13.80;99.90;;;;;;5053641;28;20431;-72
2023/05/10 06:43:24;;;;;;;7.90;6.20;;;13.90;99.90;;;;;;5072698;28;20459;-71
2023/05/10 06:45:50;;;;;;;6.03;5.53;;;13.80;99.90;;;;;;5072022;28;20815;-72
2023/05/10 06:48:16;;;;;;;7.77;5.23;;;13.90;99.90;;;;;;5054768;28;20412;-72
2023/05/10 06:50:42;;;;;;;7.50;5.73;;;13.90;99.90;;;;;;5071999;28;20252;-71
2023/05/10 06:53:08;;;;;;;5.63;5.13;;;14.00;99.90;;;;;;5072633;28;20185;-71
2023/05/10 06:55:34;;;;;;;6.53;5.80;;;14.00;99.90;;;;;;5072043;28;20924;-72
2023/05/10 06:57:59;;;;;;;7.27;6.67;;;14.00;99.90;;;;;;5072882;28;20407;-70
2023/05/10 07:00:25;;;;;;;7.30;5.97;;;14.00;99.90;;;;;;5071683;28;20507;-72
2023/05/10 07:02:51;;;;;;;7.30;6.43;;;14.10;99.90;;;;;;5071442;28;20194;-71
2023/05/10 07:05:17;;;;;;;7.07;5.43;;;14.10;99.90;;;;;;5071387;28;20869;-70
2023/05/10 07:07:43;;;;;;;6.70;6.10;;;14.00;99.90;;;;;;5072584;28;20412;-70
2023/05/10 07:10:09;;;;;;;6.40;5.80;;;14.00;99.90;;;;;;5071616;28;20367;-70
2023/05/10 07:12:35;;;;;;;6.00;5.50;;;14.10;99.90;;;;;;5072698;28;20421;-71
2023/05/10 07:15:01;;;;;;;6.40;5.50;;;14.10;99.90;;;;;;5072509;28;20450;-70
2023/05/10 07:17:27;;;;;;;7.13;5.43;;;14.10;99.90;;;;;;5072365;28;20197;-71
2023/05/10 07:19:56;;;;;;;6.30;5.80;;;14.10;99.90;;;;;;5070839;28;20210;-72
2023/05/10 07:22:21;;;;;;;8.63;5.53;;;14.20;99.90;;;;;;5071311;28;20293;-70
2023/05/10 07:24:47;;;;;;;6.77;6.07;;;14.30;99.90;;;;;;5072457;28;20484;-70
2023/05/10 07:27:14;;;;;;;7.00;6.50;;;14.40;99.90;;;;;;5054763;28;20252;-71
2023/05/10 07:29:40;;;;;;;6.70;6.00;;;14.40;99.90;;;;;;5072338;28;20673;-70
2023/05/10 07:32:06;;;;;;;5.70;4.90;;;14.40;99.90;;;;;;5074227;28;20249;-71
2023/05/10 07:34:32;;;;;;;6.40;5.80;;;14.50;99.90;;;;;;5075235;28;20178;-73
2023/05/10 07:37:03;;;;;;;7.90;5.60;;;14.50;99.90;;;;;;5075835;28;20169;-72
2023/05/10 07:39:29;;;;;;;6.80;5.93;;;14.40;99.90;;;;;;5057119;28;20181;-71
2023/05/10 07:41:55;;;;;;;7.77;6.47;;;14.50;99.90;;;;;;5074881;28;20754;-71
2023/05/10 07:44:21;;;;;;;5.67;5.17;;;14.70;99.90;;;;;;5075744;28;20197;-73
2023/05/10 07:46:53;;;;;;;6.00;5.43;;;14.80;99.90;;;;;;5075788;28;20900;-71
2023/05/10 07:49:59;;;;;;;5.97;5.40;;;14.90;99.90;;;;;;5075368;28;20174;-71
2023/05/10 07:52:25;;;;;;;6.80;5.80;;;15.00;99.90;;;;;;5075047;28;20511;-73
2023/05/10 07:54:50;;;;;;;5.57;5.00;;;15.10;99.90;;;;;;5075585;28;20499;-72
2023/05/10 07:57:21;;;;;;;8.93;6.93;;;15.30;99.90;;;;;;5074752;28;20235;-73
2023/05/10 08:00:19;;;;;;;7.40;5.70;;;15.40;99.90;;;;;;5056209;28;20186;-71
2023/05/10 08:02:57;;;;;;;6.83;5.40;;;15.50;99.90;;;;;;5074677;28;20452;-71
2023/05/10 08:05:23;;;;;;;9.50;4.83;;;15.50;99.90;;;;;;5068083;28;20441;-75
2023/05/10 08:07:49;;;;;;;5.90;5.47;;;15.60;99.90;;;;;;5073622;28;20791;-71
2023/05/10 08:10:16;;;;;;;7.73;6.40;;;15.70;99.90;;;;;;5074449;28;20460;-67
2023/05/10 08:12:42;;;;;;;6.20;5.63;;;15.80;99.90;;;;;;5075400;28;20427;-71
2023/05/10 08:15:08;;;;;;;6.50;5.90;;;15.90;99.90;;;;;;5074515;28;20404;-72
2023/05/10 08:17:34;;;;;;;8.60;5.80;;;16.10;99.90;;;;;;5073815;28;20530;-75
2023/05/10 08:20:34;;;;;;;7.00;5.37;;;16.20;99.90;;;;;;5056179;28;21000;-70
2023/05/10 08:26:23;;;;;;;5.73;5.33;;;16.60;99.90;;;;;;4974164;28;20537;-71
2023/05/10 08:28:49;;;;;;;6.37;5.77;;;16.80;99.90;;;;;;4974188;28;20413;-70
2023/05/10 08:31:15;;;;;;;6.73;6.13;;;16.80;99.90;;;;;;5050542;28;20420;-76
2023/05/10 08:33:44;;;;;;;5.60;5.03;;;16.90;99.90;;;;;;5074096;28;20194;-75
2023/05/10 08:36:24;;;;;;;;;;;;;;;;;;;;;
2023/05/10 08:39:13;;;;;;;5.87;5.37;;;17.00;99.90;;;;;;5074040;28;20431;-74
2023/05/10 08:41:44;;;;;;;6.40;5.40;;;17.20;99.90;;;;;;5073849;28;20397;-75
2023/05/10 08:45:07;;;;;;;5.73;5.33;;;17.40;99.90;;;;;;5073896;28;20547;-75
2023/05/10 08:48:18;;;;;;;5.47;5.03;;;17.50;99.90;;;;;;4956680;28;20436;-75
2023/05/10 08:50:55;;;;;;;6.10;5.03;;;17.70;99.90;;;;;;4972890;28;20462;-75
2023/05/10 08:53:33;;;;;;;6.23;5.60;;;17.90;99.90;;;;;;5041376;28;20531;-72
2023/05/10 08:55:59;;;;;;;6.87;5.80;;;18.20;99.90;;;;;;5053079;28;20448;-72
2023/05/10 09:01:40;;;;;;;6.53;5.93;;;18.30;99.90;;;;;;5073544;28;20419;-75
2023/05/10 09:04:06;;;;;;;6.17;5.57;;;18.40;99.90;;;;;;5073914;28;20501;-72
2023/05/10 09:06:46;;;;;;;8.33;5.50;;;18.50;99.90;;;;;;5074375;28;20404;-75
2023/05/10 09:09:13;;;;;;;5.43;5.00;;;18.70;99.90;;;;;;5073643;28;20412;-75
2023/05/10 09:11:42;;;;;;;8.10;4.97;;;18.60;99.90;;;;;;5055663;28;20419;-74
2023/05/10 09:14:09;;;;;;;5.23;4.83;;;18.70;99.90;;;;;;5073430;28;20485;-73
2023/05/10 09:17:00;;;;;;;5.23;4.80;;;18.70;99.90;;;;;;5055423;28;20773;-73
2023/05/10 09:19:27;;;;;;;5.30;4.90;;;18.70;99.90;;;;;;5053009;28;20433;-73
2023/05/10 09:21:53;;;;;;;5.97;5.33;;;18.70;99.90;;;;;;5053175;28;20397;-74
2023/05/10 09:24:19;;;;;;;6.70;4.90;;;18.80;99.90;;;;;;5053802;28;20460;-75
2023/05/10 09:26:49;;;;;;;9.53;5.67;;;19.10;99.90;;;;;;5053883;28;20401;-75
2023/05/10 09:29:15;;;;;;;6.10;5.13;;;19.10;99.90;;;;;;5053976;28;20420;-72
2023/05/10 09:31:54;;;;;;;4.70;4.30;;;19.00;99.90;;;;;;5054688;28;20437;-72
2023/05/10 09:34:31;;;;;;;8.00;5.07;;;19.00;99.90;;;;;;5072130;28;20439;-75
2023/05/10 09:37:09;;;;;;;6.33;5.83;;;19.10;99.90;;;;;;5073774;28;20769;-72
2023/05/10 09:39:37;;;;;;;7.00;6.40;;;19.20;99.90;;;;;;5073543;28;20412;-71
2023/05/10 09:42:10;;;;;;;11.10;5.47;;;19.20;99.90;;;;;;5072695;28;20411;-74
2023/05/10 09:44:37;;;;;;;6.00;5.40;;;19.30;99.90;;;;;;5073597;28;20434;-75
2023/05/10 09:47:04;;;;;;;6.07;5.47;;;19.50;99.90;;;;;;5072927;28;20432;-71
2023/05/10 09:49:30;;;;;;;6.13;5.53;;;19.70;99.90;;;;;;5072964;28;20389;-72
2023/05/10 09:52:10;;;;;;;5.87;5.33;;;20.00;99.90;;;;;;5071911;28;21004;-74
2023/05/10 09:54:36;;;;;;;7.20;6.37;;;20.10;99.90;;;;;;5073323;28;20480;-75
2023/05/10 09:57:03;;;;;;;6.50;5.80;;;20.20;99.90;;;;;;5073340;28;20904;-72
2023/05/10 09:59:29;;;;;;;5.30;4.83;;;20.10;99.90;;;;;;5055467;28;20423;-75
2023/05/10 10:01:59;;;;;;;6.00;5.40;;;20.20;99.90;;;;;;5071733;28;20781;-72
2023/05/10 10:04:26;;;;;;;6.50;5.90;;;20.30;99.90;;;;;;5072688;28;20502;-72
2023/05/10 10:07:05;;;;;;;6.83;6.20;;;20.50;99.90;;;;;;5072978;28;20428;-71
2023/05/10 10:09:31;;;;;;;6.00;5.40;;;20.50;99.90;;;;;;5073069;28;20405;-72
2023/05/10 10:12:00;;;;;;;7.27;5.10;;;20.60;99.90;;;;;;5066167;28;20952;-72
2023/05/10 10:14:26;;;;;;;7.90;7.10;;;20.80;99.90;;;;;;5053124;28;20460;-75
2023/05/10 10:17:01;;;;;;;7.73;6.67;;;21.10;99.90;;;;;;5042046;28;20441;-76
2023/05/10 10:19:27;;;;;;;7.93;6.60;;;21.10;99.90;;;;;;5075889;28;20188;-74
2023/05/10 10:22:13;;;;;;;;;;;;;;;;;;;;;
2023/05/10 10:24:40;;;;;;;6.10;5.53;;;21.30;99.90;;;;;;5072081;28;20416;-73
2023/05/10 10:27:33;;;;;;;7.20;6.03;;;21.40;99.90;;;;;;5091308;28;20411;-75
2023/05/10 10:30:09;;;;;;;6.00;5.50;;;21.30;99.90;;;;;;5074396;28;20448;-76
2023/05/10 10:33:17;;;;;;;5.80;5.30;;;21.30;99.90;;;;;;5055182;28;20511;-75
2023/05/10 10:35:55;;;;;;;;;;;;;;;;;;;;;
2023/05/10 10:38:22;;;;;;;9.43;5.70;;;21.50;99.90;;;;;;5072560;28;20415;-73
2023/05/10 10:40:48;;;;;;;10.17;6.20;;;21.40;99.90;;;;;;5072189;28;20392;-73
2023/05/10 10:43:32;;;;;;;5.67;5.17;;;21.50;99.90;;;;;;5065826;28;20514;-73
2023/05/10 10:46:18;;;;;;;7.70;6.00;;;21.60;99.90;;;;;;5054509;28;20253;-74
2023/05/10 10:49:08;;;;;;;7.63;5.87;;;21.50;99.90;;;;;;5072736;28;20901;-73
2023/05/10 10:51:40;;;;;;;5.27;4.87;;;21.30;99.90;;;;;;5054863;28;20424;-75
2023/05/10 10:54:10;;;;;;;7.73;6.93;;;21.10;99.90;;;;;;5077638;28;20955;-74
2023/05/10 10:57:30;;;;;;;7.03;6.23;;;21.10;99.90;;;;;;5075074;28;20553;-77
2023/05/10 11:00:35;;;;;;;5.37;4.77;;;21.00;99.90;;;;;;5079349;28;20506;-73
2023/05/10 11:03:06;;;;;;;8.03;5.07;;;20.90;99.90;;;;;;5072444;28;20546;-75
2023/05/10 11:05:37;;;;;;;6.20;5.63;;;21.00;99.90;;;;;;5072849;28;20435;-73
2023/05/10 11:15:15;;;;;;;7.20;5.27;;;21.00;99.90;;;;;;5066446;28;20514;-71
2023/05/10 11:17:52;;;;;;;6.73;4.90;;;20.70;99.90;;;;;;5080364;28;20520;-72
2023/05/10 11:20:43;;;;;;;5.17;4.77;;;20.50;99.90;;;;;;5074841;28;20541;-74
2023/05/10 11:23:19;;;;;;;6.80;5.13;;;20.30;99.90;;;;;;5089861;28;20455;-73
2023/05/10 11:26:00;;;;;;;6.60;5.60;;;20.20;99.90;;;;;;5077683;28;20435;-72
2023/05/10 11:28:34;;;;;;;5.40;4.90;;;20.00;99.90;;;;;;5075840;28;20480;-77
2023/05/10 11:34:38;;;;;;;6.80;5.93;;;19.80;99.90;;;;;;5055899;28;20423;-73
2023/05/10 11:37:18;;;;;;;8.53;6.07;;;19.70;99.90;;;;;;5061617;28;20947;-76
2023/05/10 11:39:48;;;;;;;12.33;6.40;;;19.50;99.90;;;;;;5096164;28;20493;-75
2023/05/10 11:42:14;;;;;;;6.97;6.37;;;19.50;99.90;;;;;;5091032;28;20948;-75
2023/05/10 11:44:41;;;;;;;10.00;5.67;;;19.60;99.90;;;;;;5075115;28;20419;-72
2023/05/10 11:47:07;;;;;;;5.40;5.00;;;19.80;99.90;;;;;;5068521;28;20427;-72
2023/05/10 11:49:36;;;;;;;6.10;5.50;;;19.70;99.90;;;;;;5095930;28;20412;-72
2023/05/10 11:52:10;;;;;;;6.00;5.50;;;19.70;99.90;;;;;;5075935;28;20502;-75
2023/05/10 11:58:30;;;;;;;6.80;6.10;;;19.70;99.90;;;;;;4993462;28;20428;-73
2023/05/10 12:00:57;;;;;;;10.23;6.00;;;19.60;99.90;;;;;;4985162;28;20440;-74
2023/05/10 12:03:23;;;;;;;6.97;6.47;;;19.60;99.90;;;;;;5072983;28;20956;-74
2023/05/10 12:05:49;;;;;;;6.83;6.23;;;19.60;99.90;;;;;;5077391;28;20757;-75
2023/05/10 12:12:16;;;;;;;7.03;5.70;;;19.50;99.90;;;;;;5074320;28;20872;-72
2023/05/10 12:14:52;;;;;;;8.10;6.27;;;19.50;99.90;;;;;;5085367;28;20428;-73
2023/05/10 12:17:20;;;;;;;6.50;5.87;;;19.50;99.90;;;;;;5073743;28;20424;-72
2023/05/10 12:20:14;;;;;;;6.67;5.93;;;19.50;99.90;;;;;;5075098;28;20411;-74
2023/05/10 12:22:50;;;;;;;6.50;5.93;;;19.60;99.90;;;;;;5083862;28;20459;-75
2023/05/10 12:25:36;;;;;;;7.90;6.87;;;19.50;99.90;;;;;;5077673;28;20418;-71
2023/05/10 12:28:35;;;;;;;12.37;6.23;;;19.30;99.90;;;;;;5059272;28;20420;-71
2023/05/10 12:31:01;;;;;;;7.67;6.43;;;19.10;99.90;;;;;;5054091;28;20456;-71
2023/05/10 12:33:42;;;;;;;9.17;8.27;;;18.70;99.90;;;;;;5077300;28;20444;-71
2023/05/10 12:36:13;;;;;;;8.27;7.57;;;18.50;99.90;;;;;;5094175;28;20411;-77
2023/05/10 12:38:43;;;;;;;12.00;8.17;;;18.20;99.90;;;;;;5074865;28;20488;-79
2023/05/10 12:41:11;;;;;;;9.40;8.50;;;17.80;99.90;;;;;;5073768;28;20400;-72
2023/05/10 12:43:37;;;;;;;11.00;9.80;;;17.50;99.90;;;;;;5056920;28;21031;-74
2023/05/10 12:46:53;;;;;;;;;;;;;;;;;;;;;
2023/05/10 12:49:19;;;;;;;12.40;10.60;;;17.00;1.00;;;;;;5054225;28;20398;-79
2023/05/10 12:51:45;;;;;;;11.03;9.93;;;16.80;1.00;;;;;;5060935;28;20502;-81
2023/05/10 12:54:11;;;;;;;12.03;10.57;;;16.60;1.00;;;;;;5076567;28;20733;-80
2023/05/10 12:56:42;;;;;;;19.30;11.20;;;16.50;1.00;;;;;;5092862;28;20937;-81
2023/05/10 12:59:08;;;;;;;11.77;10.50;;;16.40;1.00;;;;;;5074353;28;20483;-80
2023/05/10 13:01:46;;;;;;;14.40;11.93;;;16.20;1.00;;;;;;5055173;28;20406;-80
2023/05/10 13:04:12;;;;;;;13.77;11.87;;;16.10;1.00;;;;;;5054193;28;20488;-75
2023/05/10 13:06:38;;;;;;;16.17;12.63;;;16.10;1.00;;;;;;5055758;28;20410;-73
2023/05/10 13:09:04;;;;;;;14.10;12.60;;;16.00;1.00;;;;;;5074541;28;20498;-76
2023/05/10 13:11:43;;;;;;;15.87;12.47;;;16.00;1.00;;;;;;5073224;28;20213;-79
2023/05/10 13:14:45;;;;;;;;;;;;;;;;;;;;;
2023/05/10 13:17:17;;;;;;;14.63;11.30;;;16.10;1.00;;;;;;5072472;28;20420;-74
2023/05/10 13:19:43;;;;;;;14.47;12.57;;;15.90;1.00;;;;;;5073993;28;20420;-78
2023/05/10 13:22:09;;;;;;;13.67;11.40;;;15.80;1.00;;;;;;5078538;28;20892;-75
2023/05/10 13:24:35;;;;;;;15.70;11.70;;;15.80;1.00;;;;;;5075563;28;20214;-78
2023/05/10 13:27:01;;;;;;;13.13;11.83;;;15.90;1.00;;;;;;5073490;28;20170;-74
2023/05/10 13:29:26;;;;;;;16.60;11.87;;;15.90;1.00;;;;;;5073259;28;20433;-73
2023/05/10 13:31:52;;;;;;;14.47;12.17;;;15.90;1.00;;;;;;5072747;28;20178;-73
2023/05/10 13:34:21;;;;;;;12.27;10.93;;;15.80;1.00;;;;;;5073806;28;20231;-77
2023/05/10 13:36:47;;;;;;;13.43;11.30;;;15.80;1.00;;;;;;5073503;28;20196;-74
2023/05/10 13:39:13;;;;;;;13.10;11.20;;;15.70;1.00;;;;;;5073032;28;20440;-73
2023/05/10 13:41:41;;;;;;;20.63;11.93;;;15.80;1.00;;;;;;5072723;28;20461;-77